createdAt,value
2022-08-19T00:09:40.382Z,97740.16
2022-08-19T00:19:46.717Z,97739.47
2022-08-19T00:29:53.038Z,97740.78
2022-08-19T00:39:59.510Z,97722.00
2022-08-19T00:50:06.752Z,97724.41
2022-08-19T01:00:17.122Z,97716.13
2022-08-19T01:10:28.244Z,97721.00
2022-08-19T01:20:36.534Z,97716.66
2022-08-19T01:30:44.312Z,97704.59
2022-08-19T01:40:50.962Z,97702.53
2022-08-19T01:50:57.983Z,97703.06
2022-08-19T02:01:06.046Z,97700.44
2022-08-19T02:11:24.221Z,97692.03
2022-08-19T02:21:31.466Z,97687.22
2022-08-19T02:31:38.069Z,97688.03
2022-08-19T02:41:44.396Z,97681.31
2022-08-19T02:51:50.768Z,97680.75
2022-08-19T03:01:57.107Z,97685.41
2022-08-19T03:12:03.672Z,97669.88
2022-08-19T03:22:10.163Z,97679.22
2022-08-19T03:32:29.681Z,97678.06
2022-08-19T03:42:48.834Z,97682.84
2022-08-19T03:52:55.886Z,97700.13
2022-08-19T04:03:03.071Z,97702.62
2022-08-19T04:13:11.197Z,97722.56
2022-08-19T04:23:17.532Z,97728.63
2022-08-19T04:33:28.424Z,97738.94
2022-08-19T04:43:36.623Z,97749.62
2022-08-19T04:53:44.050Z,97757.44
2022-08-19T05:03:51.326Z,97753.50
2022-08-19T05:13:58.404Z,97736.44
2022-08-19T05:24:09.893Z,97747.19
2022-08-19T05:34:18.208Z,97743.78
2022-08-19T05:44:29.034Z,97765.63
2022-08-19T05:54:35.992Z,97770.38
2022-08-19T06:04:44.996Z,97760.78
2022-08-19T06:15:01.158Z,97766.03
2022-08-19T06:25:08.586Z,97766.19
2022-08-19T06:35:16.669Z,97768.34
2022-08-19T06:45:24.680Z,97789.00
2022-08-19T06:55:33.497Z,97795.31
2022-08-19T07:05:45.787Z,97805.94
2022-08-19T07:15:52.514Z,97821.25
2022-08-19T07:25:59.249Z,97842.72
2022-08-19T07:36:07.765Z,97847.53
2022-08-19T07:46:15.517Z,97864.78
2022-08-19T07:56:23.196Z,97863.59
2022-08-19T08:06:48.156Z,97858.38
2022-08-19T08:16:54.654Z,97867.13
2022-08-19T08:27:02.197Z,97876.34
2022-08-19T08:37:09.887Z,97867.94
2022-08-19T08:47:20.011Z,97854.13
2022-08-19T08:57:37.707Z,97856.63
2022-08-19T09:08:02.463Z,97848.16
2022-08-19T09:18:15.403Z,97845.50
2022-08-19T09:28:27.276Z,97842.56
2022-08-19T09:38:33.980Z,97849.63
2022-08-19T09:48:44.511Z,97866.06
2022-08-19T09:58:51.124Z,97867.78
2022-08-19T10:08:57.466Z,97880.22
2022-08-19T10:19:06.124Z,97879.41
2022-08-19T10:29:14.421Z,97888.41
2022-08-19T10:39:43.077Z,97879.19
2022-08-19T10:50:11.850Z,97878.62
2022-08-19T11:00:18.897Z,97867.91
2022-08-19T11:10:25.672Z,97863.66
2022-08-19T11:20:33.568Z,97873.38
2022-08-19T11:30:41.928Z,97867.69
2022-08-19T11:40:56.532Z,97876.34
2022-08-19T11:51:08.363Z,97861.47
2022-08-19T12:02:51.255Z,97870.72
2022-08-19T12:12:58.924Z,97864.19
2022-08-19T12:23:06.896Z,97856.78
2022-08-19T12:33:11.309Z,97847.72
2022-08-19T12:43:21.882Z,97830.19
2022-08-19T12:53:28.224Z,97820.56
2022-08-19T13:03:37.484Z,97823.72
2022-08-19T13:13:48.636Z,97812.31
2022-08-19T13:23:55.343Z,97817.47
2022-08-19T13:34:01.671Z,97818.00
2022-08-19T13:44:08.846Z,97805.22
2022-08-19T13:54:15.377Z,97811.94
2022-08-19T14:04:21.777Z,97796.75
2022-08-19T14:14:28.126Z,97795.06
2022-08-19T14:24:34.429Z,97794.78
2022-08-19T14:34:40.951Z,97792.41
2022-08-19T14:44:48.303Z,97781.78
2022-08-19T14:54:55.139Z,97761.06
2022-08-19T15:05:02.222Z,97741.34
2022-08-19T15:15:16.432Z,97731.63
2022-08-19T15:25:23.191Z,97733.12
2022-08-19T15:35:30.340Z,97716.56
2022-08-19T15:45:36.712Z,97699.28
2022-08-19T15:55:45.308Z,97676.41
2022-08-19T16:06:10.276Z,97696.88
2022-08-19T16:16:16.696Z,97722.56
2022-08-19T16:26:22.995Z,97722.41
2022-08-19T16:36:34.958Z,97721.63
2022-08-19T16:46:42.795Z,97705.56
2022-08-19T16:56:52.238Z,97706.31
2022-08-19T17:06:58.594Z,97668.87
2022-08-19T17:17:04.874Z,97703.44
2022-08-19T17:27:11.176Z,97767.06
2022-08-19T17:37:18.417Z,97847.41
2022-08-19T17:47:24.751Z,97825.69
2022-08-19T17:57:31.417Z,97972.69
2022-08-19T18:07:37.803Z,97890.84
2022-08-19T18:17:44.933Z,97871.06
